sensor_id;sensor_type;location;lat;lon;timestamp;temperature;humidity
7894;DHT22;51343;51.396;6.656;2024-02-21T00:01:03;8.90;1.00
7894;DHT22;51343;51.396;6.656;2024-02-21T00:21:39;8.90;1.00
7894;DHT22;51343;51.396;6.656;2024-02-21T00:24:07;9.00;1.00
7894;DHT22;51343;51.396;6.656;2024-02-21T00:26:34;9.00;1.00
7894;DHT22;51343;51.396;6.656;2024-02-21T00:29:01;9.00;1.00
7894;DHT22;51343;51.396;6.656;2024-02-21T00:31:30;9.00;1.00
7894;DHT22;51343;51.396;6.656;2024-02-21T00:33:58;9.00;1.00
7894;DHT22;51343;51.396;6.656;2024-02-21T00:57:10;9.00;1.00
7894;DHT22;51343;51.396;6.656;2024-02-21T00:59:37;9.00;1.00
7894;DHT22;51343;51.396;6.656;2024-02-21T01:04:40;9.00;1.00
7894;DHT22;51343;51.396;6.656;2024-02-21T01:07:07;9.00;1.00
7894;DHT22;51343;51.396;6.656;2024-02-21T01:17:26;9.00;1.00
7894;DHT22;51343;51.396;6.656;2024-02-21T01:49:21;9.00;99.90
7894;DHT22;51343;51.396;6.656;2024-02-21T02:05:22;9.00;99.90
7894;DHT22;51343;51.396;6.656;2024-02-21T02:13:07;9.00;99.90
7894;DHT22;51343;51.396;6.656;2024-02-21T02:23:31;9.00;99.90
7894;DHT22;51343;51.396;6.656;2024-02-21T02:25:58;8.90;1.00
7894;DHT22;51343;51.396;6.656;2024-02-21T02:28:26;8.90;1.00
7894;DHT22;51343;51.396;6.656;2024-02-21T02:43:55;8.70;27.30
7894;DHT22;51343;51.396;6.656;2024-02-21T02:46:25;8.70;99.90
7894;DHT22;51343;51.396;6.656;2024-02-21T04:07:13;8.40;1.00
7894;DHT22;51343;51.396;6.656;2024-02-21T04:23:10;8.40;1.00
7894;DHT22;51343;51.396;6.656;2024-02-21T05:12:35;8.40;99.90
7894;DHT22;51343;51.396;6.656;2024-02-21T10:40:38;9.60;1.00
7894;DHT22;51343;51.396;6.656;2024-02-21T10:59:10;9.90;1.00
7894;DHT22;51343;51.396;6.656;2024-02-21T11:12:09;10.00;1.00
7894;DHT22;51343;51.396;6.656;2024-02-21T11:30:12;10.50;1.00
7894;DHT22;51343;51.396;6.656;2024-02-21T11:32:58;10.50;1.00
7894;DHT22;51343;51.396;6.656;2024-02-21T11:55:23;10.70;1.00
7894;DHT22;51343;51.396;6.656;2024-02-21T11:57:53;10.60;1.00
7894;DHT22;51343;51.396;6.656;2024-02-21T12:00:31;10.70;1.00
7894;DHT22;51343;51.396;6.656;2024-02-21T12:03:00;10.80;1.00
7894;DHT22;51343;51.396;6.656;2024-02-21T12:05:41;10.90;1.00
7894;DHT22;51343;51.396;6.656;2024-02-21T12:08:12;10.90;1.00
7894;DHT22;51343;51.396;6.656;2024-02-21T12:10:41;11.00;1.00
7894;DHT22;51343;51.396;6.656;2024-02-21T12:13:11;11.00;1.00
7894;DHT22;51343;51.396;6.656;2024-02-21T12:15:47;10.90;1.00
7894;DHT22;51343;51.396;6.656;2024-02-21T12:18:15;10.90;1.00
7894;DHT22;51343;51.396;6.656;2024-02-21T12:20:43;11.00;1.00
7894;DHT22;51343;51.396;6.656;2024-02-21T12:23:13;11.10;1.00
7894;DHT22;51343;51.396;6.656;2024-02-21T12:25:43;11.20;1.00
7894;DHT22;51343;51.396;6.656;2024-02-21T12:28:10;11.40;1.00
7894;DHT22;51343;51.396;6.656;2024-02-21T12:30:37;11.50;1.00
7894;DHT22;51343;51.396;6.656;2024-02-21T12:33:06;11.50;1.00
7894;DHT22;51343;51.396;6.656;2024-02-21T12:35:39;11.50;99.90
7894;DHT22;51343;51.396;6.656;2024-02-21T12:38:07;11.50;99.90
7894;DHT22;51343;51.396;6.656;2024-02-21T12:40:34;11.50;99.90
7894;DHT22;51343;51.396;6.656;2024-02-21T12:43:05;11.60;99.90
7894;DHT22;51343;51.396;6.656;2024-02-21T12:45:32;11.80;99.90
7894;DHT22;51343;51.396;6.656;2024-02-21T12:48:00;11.90;99.90
7894;DHT22;51343;51.396;6.656;2024-02-21T12:50:30;11.90;99.90
7894;DHT22;51343;51.396;6.656;2024-02-21T14:00:37;11.60;99.90
7894;DHT22;51343;51.396;6.656;2024-02-21T14:40:10;12.20;99.90
7894;DHT22;51343;51.396;6.656;2024-02-21T14:45:16;12.20;99.90
7894;DHT22;51343;51.396;6.656;2024-02-21T14:47:42;12.10;99.90
7894;DHT22;51343;51.396;6.656;2024-02-21T14:52:46;11.90;99.90
7894;DHT22;51343;51.396;6.656;2024-02-21T14:55:16;11.80;99.90
7894;DHT22;51343;51.396;6.656;2024-02-21T15:00:18;11.90;99.90
7894;DHT22;51343;51.396;6.656;2024-02-21T15:02:48;11.80;99.90
7894;DHT22;51343;51.396;6.656;2024-02-21T15:05:18;11.80;99.90
7894;DHT22;51343;51.396;6.656;2024-02-21T15:07:57;11.70;99.90
7894;DHT22;51343;51.396;6.656;2024-02-21T15:31:09;11.50;99.90
7894;DHT22;51343;51.396;6.656;2024-02-21T15:33:35;11.40;99.90
7894;DHT22;51343;51.396;6.656;2024-02-21T16:09:28;11.10;1.00
7894;DHT22;51343;51.396;6.656;2024-02-21T16:11:56;11.00;1.00
7894;DHT22;51343;51.396;6.656;2024-02-21T16:14:23;10.90;1.00
7894;DHT22;51343;51.396;6.656;2024-02-21T16:16:52;10.90;1.00
7894;DHT22;51343;51.396;6.656;2024-02-21T16:19:19;10.90;1.00
7894;DHT22;51343;51.396;6.656;2024-02-21T16:21:49;10.70;1.00
7894;DHT22;51343;51.396;6.656;2024-02-21T16:24:16;10.50;1.00
7894;DHT22;51343;51.396;6.656;2024-02-21T16:37:43;10.30;1.00
7894;DHT22;51343;51.396;6.656;2024-02-21T16:40:12;9.50;1.00
7894;DHT22;51343;51.396;6.656;2024-02-21T16:42:39;9.40;99.90
7894;DHT22;51343;51.396;6.656;2024-02-21T16:45:07;9.20;1.00
7894;DHT22;51343;51.396;6.656;2024-02-21T16:47:34;9.10;99.90
7894;DHT22;51343;51.396;6.656;2024-02-21T16:50:01;9.10;1.00
7894;DHT22;51343;51.396;6.656;2024-02-21T16:52:30;9.00;1.00
7894;DHT22;51343;51.396;6.656;2024-02-21T16:54:59;9.00;1.00
7894;DHT22;51343;51.396;6.656;2024-02-21T16:57:27;8.90;99.90
7894;DHT22;51343;51.396;6.656;2024-02-21T17:02:31;8.90;99.90
7894;DHT22;51343;51.396;6.656;2024-02-21T17:04:58;8.80;1.00
7894;DHT22;51343;51.396;6.656;2024-02-21T17:07:25;8.80;1.00
7894;DHT22;51343;51.396;6.656;2024-02-21T17:09:52;8.80;99.90
7894;DHT22;51343;51.396;6.656;2024-02-21T17:12:21;8.80;99.90
7894;DHT22;51343;51.396;6.656;2024-02-21T17:14:48;8.80;1.00
7894;DHT22;51343;51.396;6.656;2024-02-21T17:17:16;8.80;1.00
7894;DHT22;51343;51.396;6.656;2024-02-21T17:19:43;8.60;1.00
7894;DHT22;51343;51.396;6.656;2024-02-21T17:22:11;8.60;1.00
7894;DHT22;51343;51.396;6.656;2024-02-21T17:25:03;8.50;1.00
7894;DHT22;51343;51.396;6.656;2024-02-21T17:27:36;8.50;14.10
7894;DHT22;51343;51.396;6.656;2024-02-21T17:30:06;8.40;99.90
7894;DHT22;51343;51.396;6.656;2024-02-21T17:32:38;8.40;99.90
7894;DHT22;51343;51.396;6.656;2024-02-21T17:35:07;8.40;1.00
7894;DHT22;51343;51.396;6.656;2024-02-21T17:37:34;8.30;1.00
7894;DHT22;51343;51.396;6.656;2024-02-21T17:40:05;8.20;1.00
7894;DHT22;51343;51.396;6.656;2024-02-21T17:42:33;8.20;99.90
7894;DHT22;51343;51.396;6.656;2024-02-21T17:45:00;8.20;1.00
7894;DHT22;51343;51.396;6.656;2024-02-21T17:47:27;8.10;1.00
7894;DHT22;51343;51.396;6.656;2024-02-21T17:49:55;8.10;99.90
7894;DHT22;51343;51.396;6.656;2024-02-21T17:52:22;8.00;1.00
7894;DHT22;51343;51.396;6.656;2024-02-21T17:54:49;8.00;1.00
7894;DHT22;51343;51.396;6.656;2024-02-21T17:57:18;8.10;1.00
7894;DHT22;51343;51.396;6.656;2024-02-21T17:59:45;8.00;99.90
7894;DHT22;51343;51.396;6.656;2024-02-21T18:02:11;8.10;99.90
7894;DHT22;51343;51.396;6.656;2024-02-21T18:04:45;8.10;99.90
7894;DHT22;51343;51.396;6.656;2024-02-21T18:07:12;8.00;1.00
7894;DHT22;51343;51.396;6.656;2024-02-21T18:09:39;8.00;1.00
7894;DHT22;51343;51.396;6.656;2024-02-21T18:12:06;8.00;99.90
7894;DHT22;51343;51.396;6.656;2024-02-21T18:14:35;8.00;1.00
7894;DHT22;51343;51.396;6.656;2024-02-21T18:17:02;8.00;1.00
7894;DHT22;51343;51.396;6.656;2024-02-21T18:19:32;8.00;99.90
7894;DHT22;51343;51.396;6.656;2024-02-21T18:21:59;8.00;1.00
7894;DHT22;51343;51.396;6.656;2024-02-21T18:24:26;8.00;99.90
7894;DHT22;51343;51.396;6.656;2024-02-21T18:26:53;8.00;99.90
7894;DHT22;51343;51.396;6.656;2024-02-21T18:29:20;8.00;99.90
7894;DHT22;51343;51.396;6.656;2024-02-21T18:31:48;7.90;1.00
7894;DHT22;51343;51.396;6.656;2024-02-21T18:36:50;7.90;1.00
7894;DHT22;51343;51.396;6.656;2024-02-21T18:39:18;7.80;1.00
7894;DHT22;51343;51.396;6.656;2024-02-21T18:41:48;7.80;1.00
7894;DHT22;51343;51.396;6.656;2024-02-21T18:44:15;7.80;1.00
7894;DHT22;51343;51.396;6.656;2024-02-21T18:46:42;7.80;1.00
7894;DHT22;51343;51.396;6.656;2024-02-21T18:49:11;7.70;1.00
7894;DHT22;51343;51.396;6.656;2024-02-21T18:51:38;7.70;1.00
7894;DHT22;51343;51.396;6.656;2024-02-21T18:54:06;7.70;1.00
7894;DHT22;51343;51.396;6.656;2024-02-21T18:56:33;7.70;1.00
7894;DHT22;51343;51.396;6.656;2024-02-21T18:59:01;7.60;1.00
7894;DHT22;51343;51.396;6.656;2024-02-21T19:01:29;7.70;1.00
7894;DHT22;51343;51.396;6.656;2024-02-21T19:03:56;7.70;1.00
7894;DHT22;51343;51.396;6.656;2024-02-21T19:06:24;7.60;1.00
7894;DHT22;51343;51.396;6.656;2024-02-21T19:08:51;7.70;1.00
7894;DHT22;51343;51.396;6.656;2024-02-21T19:11:18;7.70;1.00
7894;DHT22;51343;51.396;6.656;2024-02-21T19:13:45;7.70;1.00
7894;DHT22;51343;51.396;6.656;2024-02-21T19:16:12;7.70;2.50
7894;DHT22;51343;51.396;6.656;2024-02-21T19:18:42;7.70;30.50
7894;DHT22;51343;51.396;6.656;2024-02-21T19:21:09;7.70;43.80
7894;DHT22;51343;51.396;6.656;2024-02-21T19:23:38;7.70;50.10
7894;DHT22;51343;51.396;6.656;2024-02-21T19:26:07;7.70;94.40
7894;DHT22;51343;51.396;6.656;2024-02-21T19:28:34;7.70;94.80
7894;DHT22;51343;51.396;6.656;2024-02-21T19:31:10;7.70;73.70
7894;DHT22;51343;51.396;6.656;2024-02-21T19:33:49;7.70;99.00
7894;DHT22;51343;51.396;6.656;2024-02-21T19:36:26;7.70;99.90
7894;DHT22;51343;51.396;6.656;2024-02-21T19:38:58;7.70;99.90
7894;DHT22;51343;51.396;6.656;2024-02-21T19:41:33;7.70;99.90
7894;DHT22;51343;51.396;6.656;2024-02-21T19:44:03;7.70;99.90
7894;DHT22;51343;51.396;6.656;2024-02-21T19:46:30;7.70;99.90
7894;DHT22;51343;51.396;6.656;2024-02-21T19:48:59;7.80;99.90
7894;DHT22;51343;51.396;6.656;2024-02-21T19:51:32;7.80;99.90
7894;DHT22;51343;51.396;6.656;2024-02-21T19:54:04;7.80;99.90
7894;DHT22;51343;51.396;6.656;2024-02-21T19:56:31;7.80;99.90
7894;DHT22;51343;51.396;6.656;2024-02-21T19:59:00;7.80;99.90
7894;DHT22;51343;51.396;6.656;2024-02-21T20:01:29;7.80;99.90
7894;DHT22;51343;51.396;6.656;2024-02-21T20:03:56;7.90;99.90
7894;DHT22;51343;51.396;6.656;2024-02-21T20:06:23;7.90;99.90
7894;DHT22;51343;51.396;6.656;2024-02-21T20:08:51;7.90;99.90
7894;DHT22;51343;51.396;6.656;2024-02-21T20:11:24;7.90;99.90
7894;DHT22;51343;51.396;6.656;2024-02-21T20:13:55;7.90;99.90
7894;DHT22;51343;51.396;6.656;2024-02-21T20:16:22;8.00;99.90
7894;DHT22;51343;51.396;6.656;2024-02-21T20:19:06;8.00;99.90
7894;DHT22;51343;51.396;6.656;2024-02-21T20:21:38;8.00;99.90
7894;DHT22;51343;51.396;6.656;2024-02-21T20:24:07;8.00;99.90
7894;DHT22;51343;51.396;6.656;2024-02-21T20:26:38;8.10;99.90
7894;DHT22;51343;51.396;6.656;2024-02-21T20:29:11;8.10;99.90
7894;DHT22;51343;51.396;6.656;2024-02-21T20:31:42;8.10;99.90
7894;DHT22;51343;51.396;6.656;2024-02-21T20:34:12;8.10;99.90
7894;DHT22;51343;51.396;6.656;2024-02-21T20:39:18;8.00;99.90
7894;DHT22;51343;51.396;6.656;2024-02-21T20:41:47;8.00;99.90
7894;DHT22;51343;51.396;6.656;2024-02-21T20:44:16;8.00;99.90
7894;DHT22;51343;51.396;6.656;2024-02-21T20:46:45;8.00;99.90
7894;DHT22;51343;51.396;6.656;2024-02-21T20:49:12;8.00;99.90
7894;DHT22;51343;51.396;6.656;2024-02-21T20:51:40;7.90;99.90
7894;DHT22;51343;51.396;6.656;2024-02-21T20:54:18;7.90;99.90
7894;DHT22;51343;51.396;6.656;2024-02-21T20:56:56;7.90;99.90
7894;DHT22;51343;51.396;6.656;2024-02-21T20:59:25;7.90;99.90
7894;DHT22;51343;51.396;6.656;2024-02-21T21:01:52;7.90;99.90
7894;DHT22;51343;51.396;6.656;2024-02-21T21:04:35;7.90;99.90
7894;DHT22;51343;51.396;6.656;2024-02-21T21:07:02;7.90;99.90
7894;DHT22;51343;51.396;6.656;2024-02-21T21:09:34;7.90;99.90
7894;DHT22;51343;51.396;6.656;2024-02-21T21:12:11;7.90;99.90
7894;DHT22;51343;51.396;6.656;2024-02-21T21:17:13;8.00;99.90
7894;DHT22;51343;51.396;6.656;2024-02-21T21:19:40;8.00;99.90
7894;DHT22;51343;51.396;6.656;2024-02-21T21:24:43;8.10;99.90
7894;DHT22;51343;51.396;6.656;2024-02-21T21:27:34;8.00;99.90
7894;DHT22;51343;51.396;6.656;2024-02-21T21:30:30;8.00;99.90
7894;DHT22;51343;51.396;6.656;2024-02-21T21:38:09;8.00;99.90
7894;DHT22;51343;51.396;6.656;2024-02-21T21:40:38;8.00;99.90
7894;DHT22;51343;51.396;6.656;2024-02-21T21:43:14;8.00;99.90
7894;DHT22;51343;51.396;6.656;2024-02-21T21:45:44;8.00;99.90
7894;DHT22;51343;51.396;6.656;2024-02-21T21:48:13;8.00;99.90
7894;DHT22;51343;51.396;6.656;2024-02-21T21:50:59;8.00;99.90
7894;DHT22;51343;51.396;6.656;2024-02-21T21:56:29;8.10;99.90
7894;DHT22;51343;51.396;6.656;2024-02-21T21:58:57;8.10;99.90
7894;DHT22;51343;51.396;6.656;2024-02-21T22:01:29;8.10;99.90
7894;DHT22;51343;51.396;6.656;2024-02-21T22:03:56;8.10;99.90
7894;DHT22;51343;51.396;6.656;2024-02-21T22:06:30;8.10;99.90
7894;DHT22;51343;51.396;6.656;2024-02-21T22:08:57;8.20;99.90
7894;DHT22;51343;51.396;6.656;2024-02-21T22:11:24;8.20;99.90
7894;DHT22;51343;51.396;6.656;2024-02-21T22:13:51;8.20;99.90
7894;DHT22;51343;51.396;6.656;2024-02-21T22:16:20;8.20;99.90
7894;DHT22;51343;51.396;6.656;2024-02-21T22:18:46;8.20;99.90
7894;DHT22;51343;51.396;6.656;2024-02-21T22:21:13;8.20;99.90
7894;DHT22;51343;51.396;6.656;2024-02-21T22:23:42;8.20;99.90
7894;DHT22;51343;51.396;6.656;2024-02-21T22:26:11;8.20;99.90
7894;DHT22;51343;51.396;6.656;2024-02-21T22:28:40;8.20;99.90
7894;DHT22;51343;51.396;6.656;2024-02-21T22:31:17;8.20;99.90
7894;DHT22;51343;51.396;6.656;2024-02-21T22:33:45;8.20;99.90
7894;DHT22;51343;51.396;6.656;2024-02-21T22:36:12;8.20;99.90
7894;DHT22;51343;51.396;6.656;2024-02-21T22:38:40;8.20;99.90
7894;DHT22;51343;51.396;6.656;2024-02-21T22:41:07;8.20;99.90
7894;DHT22;51343;51.396;6.656;2024-02-21T22:43:34;8.30;99.90
7894;DHT22;51343;51.396;6.656;2024-02-21T22:46:01;8.30;99.90
7894;DHT22;51343;51.396;6.656;2024-02-21T22:48:27;8.30;99.90
7894;DHT22;51343;51.396;6.656;2024-02-21T22:50:55;8.30;99.90
7894;DHT22;51343;51.396;6.656;2024-02-21T22:53:23;8.30;99.90
7894;DHT22;51343;51.396;6.656;2024-02-21T22:55:50;8.30;99.90
7894;DHT22;51343;51.396;6.656;2024-02-21T22:58:19;8.30;99.90
7894;DHT22;51343;51.396;6.656;2024-02-21T23:00:47;8.30;99.90
7894;DHT22;51343;51.396;6.656;2024-02-21T23:03:12;8.30;99.90
7894;DHT22;51343;51.396;6.656;2024-02-21T23:05:40;8.30;99.90
7894;DHT22;51343;51.396;6.656;2024-02-21T23:08:09;8.30;99.90
7894;DHT22;51343;51.396;6.656;2024-02-21T23:10:36;8.30;99.90
7894;DHT22;51343;51.396;6.656;2024-02-21T23:13:03;8.30;99.90
7894;DHT22;51343;51.396;6.656;2024-02-21T23:15:30;8.40;99.90
7894;DHT22;51343;51.396;6.656;2024-02-21T23:17:57;8.40;99.90
7894;DHT22;51343;51.396;6.656;2024-02-21T23:20:24;8.40;99.90
7894;DHT22;51343;51.396;6.656;2024-02-21T23:22:51;8.40;99.90
7894;DHT22;51343;51.396;6.656;2024-02-21T23:25:19;8.40;99.90
7894;DHT22;51343;51.396;6.656;2024-02-21T23:27:51;8.40;99.90
7894;DHT22;51343;51.396;6.656;2024-02-21T23:30:27;8.40;99.90
7894;DHT22;51343;51.396;6.656;2024-02-21T23:32:54;8.40;99.90
7894;DHT22;51343;51.396;6.656;2024-02-21T23:35:21;8.50;99.90
7894;DHT22;51343;51.396;6.656;2024-02-21T23:37:49;8.40;99.90
7894;DHT22;51343;51.396;6.656;2024-02-21T23:40:16;8.40;99.90
7894;DHT22;51343;51.396;6.656;2024-02-21T23:42:54;8.40;99.90
7894;DHT22;51343;51.396;6.656;2024-02-21T23:45:21;8.50;99.90
7894;DHT22;51343;51.396;6.656;2024-02-21T23:47:48;8.50;99.90
7894;DHT22;51343;51.396;6.656;2024-02-21T23:50:15;8.50;99.90
7894;DHT22;51343;51.396;6.656;2024-02-21T23:52:42;8.50;99.90
7894;DHT22;51343;51.396;6.656;2024-02-21T23:55:10;8.50;99.90
7894;DHT22;51343;51.396;6.656;2024-02-21T23:57:37;8.50;99.90
